Clinton, IA

12:03 AM CDT on September 20, 2014 (GMT -0500)
MesoWest US-30 @ Clinton/Mississippi Rive IL US ILDOT | Change Station
CLOSE
Current Station
Personal Weather Station
Location: Clinton, IA
Elevation: 577 ft
Nearby Weather Stations

Elev 577 ft 41.84 °N, 90.18 °W | Updated 37 minutes ago

Clear
Clear
67 °F
Feels Like 67 °F
N
2
Wind Variable Wind from North
Gusts 7.0 mph

Today
High -- | Low -- °F
--% Chance of Precip.
Yesterday
High -- | Low -- °F
Precip. -- in
6:46 AM 7:01 PM
Waning Crescent, 14% visible
Pressure 29.92 in
Visibility 10.0 miles
Clouds Clear
Dew Point 58 °F
Humidity 74%
Rainfall -999.00 in
Snow Depth Not available.
UV 0 out of 12
Pollen 5.80 out of 12
Air Quality Not available.
Flu Activity Not available.
METAR KCWI 200455Z AUTO 20009KT 10SM CLR 18/13 A2992 RMK AO1

More Conditions Fewer Conditions

Pressure 29.92 in
Visibility 10.0 miles
Clouds Clear
Dew Point 58 °F
Humidity 74%
Rainfall -999.00 in
Snow Depth Not available.
UV 0 out of 12
Pollen 5.80 out of 12
Air Quality Not available.
Flu Activity Not available.
METAR KCWI 200455Z AUTO 20009KT 10SM CLR 18/13 A2992 RMK AO1

More Conditions Fewer Conditions

10-Day Weather Forecast

Almanac

Astronomy

Sep. 20, 2014 Rise Set
Actual Time 6:46 AM CDT 7:01 PM CDT
Civil Twilight 6:18 AM CDT 7:29 PM CDT
Nautical Twilight 5:45 AM CDT 8:01 PM CDT
Astronomical Twilight 5:12 AM CDT 8:35 PM CDT
Moon 3:22 AM CDT 5:07 PM CDT
Length of Visible Light 13h 11m
Length of Day
12h 15m
Tomorrow will be 2m 47s shorter.
Waning Crescent, 14% of the Moon is Illuminated
Today
Waning Crescent
Sep 24
New
Oct 1
First Quarter
Oct 8
Full
Oct 15
Last Quarter

Today's Extremes

State Highs State Lows

Community

WunderPhotos

Upload Photos

1,754,777 photos uploaded!

WunderBlogs® & News

Nearby

Snow Depth

Station Depth Elevation
No new snow has been reported.

Earthquake Activity

City Distance Mag. Time & Date
No recent earthquake activity has been reported nearby.
Minimum magnitude displayed is 2.5.

Coastal Water Temperatures

Place Temperature
No Stations Reporting

Nearby Weather Stations